sensor_id;sensor_type;location;lat;lon;timestamp;pressure;altitude;pressure_sealevel;temperature;humidity
37856;BME280;23694;43.274;26.924;2022-09-09T00:01:28;99082.13;;;19.06;58.41
37856;BME280;23694;43.274;26.924;2022-09-09T00:04:29;99077.94;;;19.03;58.56
37856;BME280;23694;43.274;26.924;2022-09-09T00:07:21;99077.06;;;18.94;58.60
37856;BME280;23694;43.274;26.924;2022-09-09T00:15:43;99086.91;;;18.84;58.88
37856;BME280;23694;43.274;26.924;2022-09-09T00:18:26;99081.75;;;18.83;58.82
37856;BME280;23694;43.274;26.924;2022-09-09T00:21:11;99084.81;;;18.88;58.46
37856;BME280;23694;43.274;26.924;2022-09-09T00:23:40;99076.91;;;18.96;58.35
37856;BME280;23694;43.274;26.924;2022-09-09T00:26:29;99071.75;;;18.94;58.39
37856;BME280;23694;43.274;26.924;2022-09-09T00:31:38;99083.16;;;18.87;58.44
37856;BME280;23694;43.274;26.924;2022-09-09T00:34:22;99081.59;;;18.84;58.58
37856;BME280;23694;43.274;26.924;2022-09-09T00:36:50;99066.44;;;18.77;58.64
37856;BME280;23694;43.274;26.924;2022-09-09T00:39:39;99060.78;;;18.72;58.63
37856;BME280;23694;43.274;26.924;2022-09-09T00:42:26;99071.75;;;18.77;58.45
37856;BME280;23694;43.274;26.924;2022-09-09T00:45:02;99069.78;;;18.61;58.65
37856;BME280;23694;43.274;26.924;2022-09-09T00:47:50;99068.41;;;18.57;58.84
37856;BME280;23694;43.274;26.924;2022-09-09T00:53:36;99070.63;;;18.61;58.11
37856;BME280;23694;43.274;26.924;2022-09-09T00:56:20;99070.75;;;18.60;58.15
37856;BME280;23694;43.274;26.924;2022-09-09T01:01:24;99063.78;;;18.59;58.02
37856;BME280;23694;43.274;26.924;2022-09-09T01:03:54;99061.69;;;18.62;57.96
37856;BME280;23694;43.274;26.924;2022-09-09T01:22:06;99057.66;;;18.41;57.82
37856;BME280;23694;43.274;26.924;2022-09-09T01:27:36;99058.78;;;18.38;57.91
37856;BME280;23694;43.274;26.924;2022-09-09T01:30:14;99064.41;;;18.35;57.91
37856;BME280;23694;43.274;26.924;2022-09-09T01:32:49;99063.88;;;18.31;57.78
37856;BME280;23694;43.274;26.924;2022-09-09T01:37:57;99063.78;;;18.23;58.21
37856;BME280;23694;43.274;26.924;2022-09-09T01:40:24;99050.41;;;18.15;58.49
37856;BME280;23694;43.274;26.924;2022-09-09T01:42:52;99051.69;;;18.11;58.45
37856;BME280;23694;43.274;26.924;2022-09-09T01:45:18;99050.56;;;18.14;58.21
37856;BME280;23694;43.274;26.924;2022-09-09T01:47:45;99053.06;;;18.15;58.15
37856;BME280;23694;43.274;26.924;2022-09-09T01:50:14;99055.63;;;18.07;58.23
37856;BME280;23694;43.274;26.924;2022-09-09T01:52:41;99059.81;;;18.10;58.09
37856;BME280;23694;43.274;26.924;2022-09-09T01:55:08;99062.06;;;18.04;58.33
37856;BME280;23694;43.274;26.924;2022-09-09T01:58:05;99059.13;;;18.08;58.21
37856;BME280;23694;43.274;26.924;2022-09-09T02:00:38;99066.09;;;18.09;58.29
37856;BME280;23694;43.274;26.924;2022-09-09T02:03:16;99064.41;;;18.08;58.03
37856;BME280;23694;43.274;26.924;2022-09-09T02:08:44;99057.31;;;18.08;58.11
37856;BME280;23694;43.274;26.924;2022-09-09T02:11:19;99055.09;;;18.03;57.87
37856;BME280;23694;43.274;26.924;2022-09-09T02:13:47;99049.50;;;18.06;58.04
37856;BME280;23694;43.274;26.924;2022-09-09T02:16:33;99054.22;;;18.13;57.72
37856;BME280;23694;43.274;26.924;2022-09-09T02:19:14;99061.16;;;17.96;58.40
37856;BME280;23694;43.274;26.924;2022-09-09T02:21:44;99062.97;;;17.95;58.57
37856;BME280;23694;43.274;26.924;2022-09-09T02:24:14;99070.81;;;17.87;58.58
37856;BME280;23694;43.274;26.924;2022-09-09T02:26:44;99068.72;;;17.91;58.40
37856;BME280;23694;43.274;26.924;2022-09-09T02:29:16;99068.63;;;17.83;58.64
37856;BME280;23694;43.274;26.924;2022-09-09T02:31:45;99062.38;;;17.74;58.74
37856;BME280;23694;43.274;26.924;2022-09-09T02:34:14;99057.88;;;17.84;58.36
37856;BME280;23694;43.274;26.924;2022-09-09T02:36:42;99060.53;;;17.84;57.79
37856;BME280;23694;43.274;26.924;2022-09-09T02:39:11;99060.22;;;17.87;57.88
37856;BME280;23694;43.274;26.924;2022-09-09T02:41:40;99060.66;;;17.83;58.03
37856;BME280;23694;43.274;26.924;2022-09-09T02:44:25;99050.47;;;17.88;58.81
37856;BME280;23694;43.274;26.924;2022-09-09T02:50:17;99055.47;;;17.91;58.92
37856;BME280;23694;43.274;26.924;2022-09-09T02:55:48;99052.88;;;17.81;58.64
37856;BME280;23694;43.274;26.924;2022-09-09T02:58:19;99045.66;;;17.73;58.72
37856;BME280;23694;43.274;26.924;2022-09-09T03:00:47;99042.88;;;17.75;58.62
37856;BME280;23694;43.274;26.924;2022-09-09T03:03:13;99048.94;;;17.85;58.26
37856;BME280;23694;43.274;26.924;2022-09-09T03:05:43;99044.63;;;17.84;58.49
37856;BME280;23694;43.274;26.924;2022-09-09T03:08:09;99048.56;;;17.80;58.98
37856;BME280;23694;43.274;26.924;2022-09-09T03:10:35;99045.47;;;17.85;58.38
37856;BME280;23694;43.274;26.924;2022-09-09T03:13:03;99041.81;;;17.86;58.16
37856;BME280;23694;43.274;26.924;2022-09-09T03:15:32;99044.22;;;17.79;58.22
37856;BME280;23694;43.274;26.924;2022-09-09T03:17:58;99047.88;;;17.78;58.22
37856;BME280;23694;43.274;26.924;2022-09-09T03:20:29;99044.63;;;17.84;58.20
37856;BME280;23694;43.274;26.924;2022-09-09T03:22:56;99046.19;;;17.77;58.35
37856;BME280;23694;43.274;26.924;2022-09-09T03:25:22;99046.50;;;17.74;58.67
37856;BME280;23694;43.274;26.924;2022-09-09T03:27:53;99043.47;;;17.69;58.96
37856;BME280;23694;43.274;26.924;2022-09-09T03:30:24;99047.63;;;17.62;59.44
37856;BME280;23694;43.274;26.924;2022-09-09T03:32:51;99046.66;;;17.63;59.79
37856;BME280;23694;43.274;26.924;2022-09-09T03:35:18;99040.50;;;17.72;59.18
37856;BME280;23694;43.274;26.924;2022-09-09T03:37:44;99049.28;;;17.72;59.33
37856;BME280;23694;43.274;26.924;2022-09-09T03:40:11;99045.97;;;17.70;59.23
37856;BME280;23694;43.274;26.924;2022-09-09T03:42:37;99043.88;;;17.64;59.38
37856;BME280;23694;43.274;26.924;2022-09-09T03:45:06;99041.50;;;17.61;59.16
37856;BME280;23694;43.274;26.924;2022-09-09T03:47:32;99039.97;;;17.68;58.79
37856;BME280;23694;43.274;26.924;2022-09-09T03:49:58;99036.63;;;17.66;58.98
37856;BME280;23694;43.274;26.924;2022-09-09T03:52:24;99034.94;;;17.65;59.09
37856;BME280;23694;43.274;26.924;2022-09-09T03:54:52;99036.72;;;17.74;58.73
37856;BME280;23694;43.274;26.924;2022-09-09T03:57:19;99027.22;;;17.82;58.72
37856;BME280;23694;43.274;26.924;2022-09-09T03:59:45;99022.16;;;17.88;58.33
37856;BME280;23694;43.274;26.924;2022-09-09T04:02:11;99015.88;;;18.07;57.74
37856;BME280;23694;43.274;26.924;2022-09-09T04:04:37;99027.88;;;18.29;57.07
37856;BME280;23694;43.274;26.924;2022-09-09T04:07:03;99024.47;;;18.72;55.92
37856;BME280;23694;43.274;26.924;2022-09-09T04:09:33;99030.34;;;19.36;53.71
37856;BME280;23694;43.274;26.924;2022-09-09T04:11:59;99033.47;;;19.99;51.57
37856;BME280;23694;43.274;26.924;2022-09-09T04:14:25;99035.59;;;20.54;49.81
37856;BME280;23694;43.274;26.924;2022-09-09T04:16:54;99031.25;;;21.10;48.23
37856;BME280;23694;43.274;26.924;2022-09-09T04:19:21;99043.47;;;21.60;46.64
37856;BME280;23694;43.274;26.924;2022-09-09T04:21:47;99035.06;;;22.18;44.94
37856;BME280;23694;43.274;26.924;2022-09-09T04:24:15;99030.53;;;22.64;43.52
37856;BME280;23694;43.274;26.924;2022-09-09T04:26:42;99037.31;;;23.27;42.49
37856;BME280;23694;43.274;26.924;2022-09-09T04:29:08;99039.28;;;23.78;41.60
37856;BME280;23694;43.274;26.924;2022-09-09T04:31:34;99042.03;;;24.35;40.04
37856;BME280;23694;43.274;26.924;2022-09-09T04:34:00;99034.84;;;24.78;38.73
37856;BME280;23694;43.274;26.924;2022-09-09T04:36:33;99040.09;;;25.14;38.09
37856;BME280;23694;43.274;26.924;2022-09-09T04:39:00;99041.78;;;25.50;37.66
37856;BME280;23694;43.274;26.924;2022-09-09T04:41:27;99047.00;;;25.65;37.19
37856;BME280;23694;43.274;26.924;2022-09-09T04:43:53;99041.66;;;26.06;36.18
37856;BME280;23694;43.274;26.924;2022-09-09T04:46:20;99049.03;;;26.58;35.23
37856;BME280;23694;43.274;26.924;2022-09-09T04:48:49;99047.84;;;27.13;34.19
37856;BME280;23694;43.274;26.924;2022-09-09T04:51:15;99046.59;;;27.36;33.54
37856;BME280;23694;43.274;26.924;2022-09-09T04:53:41;99053.75;;;27.68;33.10
37856;BME280;23694;43.274;26.924;2022-09-09T04:56:12;99056.44;;;27.75;33.56
37856;BME280;23694;43.274;26.924;2022-09-09T04:58:39;99051.25;;;27.73;33.44
37856;BME280;23694;43.274;26.924;2022-09-09T05:01:10;99048.41;;;27.55;33.81
37856;BME280;23694;43.274;26.924;2022-09-09T05:03:37;99045.94;;;27.40;34.29
37856;BME280;23694;43.274;26.924;2022-09-09T05:06:11;99047.34;;;27.69;34.33
37856;BME280;23694;43.274;26.924;2022-09-09T05:08:40;99058.31;;;28.19;33.45
37856;BME280;23694;43.274;26.924;2022-09-09T05:11:21;99059.00;;;28.84;32.25
37856;BME280;23694;43.274;26.924;2022-09-09T05:13:50;99063.63;;;29.52;30.89
37856;BME280;23694;43.274;26.924;2022-09-09T05:16:16;99059.94;;;30.19;29.85
37856;BME280;23694;43.274;26.924;2022-09-09T05:18:43;99059.69;;;30.51;29.47
37856;BME280;23694;43.274;26.924;2022-09-09T05:21:11;99055.91;;;30.70;29.16
37856;BME280;23694;43.274;26.924;2022-09-09T05:23:38;99052.53;;;31.10;27.82
37856;BME280;23694;43.274;26.924;2022-09-09T05:26:05;99052.88;;;30.78;28.35
37856;BME280;23694;43.274;26.924;2022-09-09T05:28:34;99054.03;;;29.92;30.08
37856;BME280;23694;43.274;26.924;2022-09-09T05:31:05;99055.22;;;29.60;30.54
37856;BME280;23694;43.274;26.924;2022-09-09T05:33:34;99046.91;;;29.61;31.06
37856;BME280;23694;43.274;26.924;2022-09-09T05:36:06;99055.41;;;29.15;30.71
37856;BME280;23694;43.274;26.924;2022-09-09T05:38:34;99055.06;;;28.49;31.48
37856;BME280;23694;43.274;26.924;2022-09-09T05:41:01;99050.97;;;29.02;30.53
37856;BME280;23694;43.274;26.924;2022-09-09T05:43:28;99046.41;;;29.28;30.56
37856;BME280;23694;43.274;26.924;2022-09-09T05:46:04;99047.38;;;29.33;29.41
37856;BME280;23694;43.274;26.924;2022-09-09T05:48:31;99046.97;;;29.91;29.02
37856;BME280;23694;43.274;26.924;2022-09-09T05:50:58;99047.97;;;30.27;28.69
37856;BME280;23694;43.274;26.924;2022-09-09T05:53:28;99046.63;;;30.48;27.84
37856;BME280;23694;43.274;26.924;2022-09-09T05:56:20;99051.78;;;29.03;29.95
37856;BME280;23694;43.274;26.924;2022-09-09T05:58:51;99046.66;;;28.70;30.31
37856;BME280;23694;43.274;26.924;2022-09-09T06:01:21;99046.41;;;27.95;31.57
37856;BME280;23694;43.274;26.924;2022-09-09T06:03:49;99045.13;;;26.87;33.55
37856;BME280;23694;43.274;26.924;2022-09-09T06:06:17;99057.16;;;26.10;34.69
37856;BME280;23694;43.274;26.924;2022-09-09T06:08:46;99049.59;;;25.79;35.25
37856;BME280;23694;43.274;26.924;2022-09-09T06:11:16;99051.88;;;25.20;36.59
37856;BME280;23694;43.274;26.924;2022-09-09T06:13:43;99047.84;;;24.39;38.71
37856;BME280;23694;43.274;26.924;2022-09-09T06:16:14;99042.09;;;24.06;38.83
37856;BME280;23694;43.274;26.924;2022-09-09T06:18:41;99039.31;;;23.63;39.64
37856;BME280;23694;43.274;26.924;2022-09-09T06:21:24;99045.41;;;23.57;40.17
37856;BME280;23694;43.274;26.924;2022-09-09T06:23:50;99044.19;;;23.45;40.33
37856;BME280;23694;43.274;26.924;2022-09-09T06:26:39;99039.16;;;23.27;40.93
37856;BME280;23694;43.274;26.924;2022-09-09T06:29:09;99039.78;;;22.99;42.15
37856;BME280;23694;43.274;26.924;2022-09-09T06:31:36;99037.84;;;22.93;41.34
37856;BME280;23694;43.274;26.924;2022-09-09T06:34:05;99041.78;;;22.83;41.99
37856;BME280;23694;43.274;26.924;2022-09-09T06:36:33;99042.06;;;22.88;42.01
37856;BME280;23694;43.274;26.924;2022-09-09T06:39:00;99048.25;;;23.03;40.63
37856;BME280;23694;43.274;26.924;2022-09-09T06:41:28;99038.22;;;23.05;41.22
37856;BME280;23694;43.274;26.924;2022-09-09T06:43:55;99043.59;;;23.20;41.04
37856;BME280;23694;43.274;26.924;2022-09-09T06:46:25;99035.47;;;23.13;41.70
37856;BME280;23694;43.274;26.924;2022-09-09T06:48:54;99047.69;;;23.60;40.50
37856;BME280;23694;43.274;26.924;2022-09-09T06:51:29;99055.06;;;23.73;39.59
37856;BME280;23694;43.274;26.924;2022-09-09T06:53:57;99053.53;;;23.99;39.47
37856;BME280;23694;43.274;26.924;2022-09-09T06:56:37;99046.88;;;24.46;37.38
37856;BME280;23694;43.274;26.924;2022-09-09T06:59:06;99050.88;;;24.72;36.67
37856;BME280;23694;43.274;26.924;2022-09-09T07:01:36;99045.56;;;25.00;35.97
37856;BME280;23694;43.274;26.924;2022-09-09T07:04:03;99043.53;;;24.80;35.41
37856;BME280;23694;43.274;26.924;2022-09-09T07:06:35;99041.47;;;24.40;33.94
37856;BME280;23694;43.274;26.924;2022-09-09T07:09:08;99047.34;;;24.28;34.04
37856;BME280;23694;43.274;26.924;2022-09-09T07:11:45;99042.50;;;24.39;33.87
37856;BME280;23694;43.274;26.924;2022-09-09T07:14:12;99049.88;;;24.37;34.05
37856;BME280;23694;43.274;26.924;2022-09-09T07:16:40;99038.91;;;24.95;33.31
37856;BME280;23694;43.274;26.924;2022-09-09T07:19:07;99043.91;;;24.56;33.72
37856;BME280;23694;43.274;26.924;2022-09-09T07:21:33;99041.66;;;24.38;34.19
37856;BME280;23694;43.274;26.924;2022-09-09T07:24:00;99043.09;;;24.19;34.36
37856;BME280;23694;43.274;26.924;2022-09-09T07:26:29;99030.09;;;24.16;34.33
37856;BME280;23694;43.274;26.924;2022-09-09T07:28:56;99042.88;;;24.57;34.02
37856;BME280;23694;43.274;26.924;2022-09-09T07:31:25;99040.06;;;24.65;34.25
37856;BME280;23694;43.274;26.924;2022-09-09T07:33:51;99032.66;;;24.88;33.70
37856;BME280;23694;43.274;26.924;2022-09-09T07:36:23;99034.25;;;25.04;33.69
37856;BME280;23694;43.274;26.924;2022-09-09T07:38:54;99027.31;;;25.16;33.08
37856;BME280;23694;43.274;26.924;2022-09-09T07:41:32;99029.66;;;25.26;33.45
37856;BME280;23694;43.274;26.924;2022-09-09T07:44:04;99024.59;;;25.38;33.01
37856;BME280;23694;43.274;26.924;2022-09-09T07:46:31;99025.94;;;25.62;32.40
37856;BME280;23694;43.274;26.924;2022-09-09T07:48:57;99018.47;;;25.50;33.19
37856;BME280;23694;43.274;26.924;2022-09-09T07:51:29;99029.13;;;25.37;33.32
37856;BME280;23694;43.274;26.924;2022-09-09T07:53:59;99027.50;;;25.77;32.75
37856;BME280;23694;43.274;26.924;2022-09-09T07:56:27;99031.31;;;26.03;32.18
37856;BME280;23694;43.274;26.924;2022-09-09T07:58:55;99025.19;;;26.22;31.90
37856;BME280;23694;43.274;26.924;2022-09-09T08:01:24;99010.38;;;26.52;31.50
37856;BME280;23694;43.274;26.924;2022-09-09T08:03:59;99006.81;;;26.32;31.63
37856;BME280;23694;43.274;26.924;2022-09-09T08:06:28;99006.47;;;26.55;32.12
37856;BME280;23694;43.274;26.924;2022-09-09T08:08:55;98981.03;;;26.58;31.29
37856;BME280;23694;43.274;26.924;2022-09-09T08:11:23;98991.09;;;26.16;32.45
37856;BME280;23694;43.274;26.924;2022-09-09T08:13:50;98986.56;;;26.23;32.01
37856;BME280;23694;43.274;26.924;2022-09-09T08:16:19;98988.44;;;26.29;32.58
37856;BME280;23694;43.274;26.924;2022-09-09T08:18:49;98987.66;;;26.55;32.79
37856;BME280;23694;43.274;26.924;2022-09-09T08:21:18;98989.75;;;26.66;32.10
37856;BME280;23694;43.274;26.924;2022-09-09T08:23:45;98980.41;;;26.62;31.91
37856;BME280;23694;43.274;26.924;2022-09-09T08:26:14;98974.44;;;26.73;32.22
37856;BME280;23694;43.274;26.924;2022-09-09T08:28:42;98983.09;;;26.62;32.58
37856;BME280;23694;43.274;26.924;2022-09-09T08:31:16;98984.13;;;26.54;33.03
37856;BME280;23694;43.274;26.924;2022-09-09T08:33:43;98980.81;;;26.39;32.73
37856;BME280;23694;43.274;26.924;2022-09-09T08:36:14;98985.38;;;26.45;32.56
37856;BME280;23694;43.274;26.924;2022-09-09T08:38:42;98985.09;;;26.14;33.18
37856;BME280;23694;43.274;26.924;2022-09-09T08:50:38;99007.50;;;26.54;34.01
37856;BME280;23694;43.274;26.924;2022-09-09T08:58:30;98987.66;;;26.81;33.65
37856;BME280;23694;43.274;26.924;2022-09-09T09:09:11;98986.84;;;26.88;33.17
37856;BME280;23694;43.274;26.924;2022-09-09T09:11:43;98973.19;;;27.09;32.92
37856;BME280;23694;43.274;26.924;2022-09-09T09:16:58;98970.28;;;26.51;34.47
37856;BME280;23694;43.274;26.924;2022-09-09T09:19:25;98960.16;;;26.60;34.05
37856;BME280;23694;43.274;26.924;2022-09-09T09:22:21;98971.53;;;26.95;33.76
37856;BME280;23694;43.274;26.924;2022-09-09T09:24:53;98966.53;;;27.18;33.12
37856;BME280;23694;43.274;26.924;2022-09-09T09:27:37;98968.63;;;27.09;33.16
37856;BME280;23694;43.274;26.924;2022-09-09T09:30:15;98963.88;;;26.92;33.90
37856;BME280;23694;43.274;26.924;2022-09-09T09:32:48;98959.75;;;26.89;33.77
37856;BME280;23694;43.274;26.924;2022-09-09T09:35:16;98951.09;;;27.00;33.67
37856;BME280;23694;43.274;26.924;2022-09-09T09:37:42;98945.88;;;27.12;33.61
37856;BME280;23694;43.274;26.924;2022-09-09T09:40:15;98943.84;;;26.88;34.29
37856;BME280;23694;43.274;26.924;2022-09-09T09:42:58;98934.50;;;27.10;33.67
37856;BME280;23694;43.274;26.924;2022-09-09T09:45:33;98936.53;;;27.34;33.50
37856;BME280;23694;43.274;26.924;2022-09-09T09:48:02;98925.56;;;27.29;33.45
37856;BME280;23694;43.274;26.924;2022-09-09T09:50:29;98928.47;;;27.34;32.96
37856;BME280;23694;43.274;26.924;2022-09-09T09:52:58;98921.00;;;27.36;32.95
37856;BME280;23694;43.274;26.924;2022-09-09T09:55:25;98911.59;;;27.59;33.24
37856;BME280;23694;43.274;26.924;2022-09-09T09:57:52;98924.16;;;27.71;33.06
37856;BME280;23694;43.274;26.924;2022-09-09T10:00:21;98933.16;;;27.45;33.14
37856;BME280;23694;43.274;26.924;2022-09-09T10:02:49;98925.31;;;27.44;32.80
37856;BME280;23694;43.274;26.924;2022-09-09T10:05:20;98939.53;;;27.64;32.40
37856;BME280;23694;43.274;26.924;2022-09-09T10:08:10;98930.34;;;27.78;32.70
37856;BME280;23694;43.274;26.924;2022-09-09T10:10:53;98935.22;;;27.95;32.29
37856;BME280;23694;43.274;26.924;2022-09-09T10:16:58;98933.16;;;27.45;32.56
37856;BME280;23694;43.274;26.924;2022-09-09T10:19:35;98942.06;;;27.46;32.27
37856;BME280;23694;43.274;26.924;2022-09-09T10:25:04;98934.47;;;27.23;32.23
37856;BME280;23694;43.274;26.924;2022-09-09T10:30:21;98940.25;;;27.85;31.86
37856;BME280;23694;43.274;26.924;2022-09-09T10:36:17;98934.09;;;27.71;31.38
37856;BME280;23694;43.274;26.924;2022-09-09T10:39:33;98916.84;;;27.85;31.33
37856;BME280;23694;43.274;26.924;2022-09-09T10:41:37;98930.31;;;28.17;30.74
37856;BME280;23694;43.274;26.924;2022-09-09T10:47:00;98920.97;;;28.26;31.06
37856;BME280;23694;43.274;26.924;2022-09-09T10:49:56;98909.59;;;28.24;30.72
37856;BME280;23694;43.274;26.924;2022-09-09T10:55:24;98914.53;;;27.89;31.42
37856;BME280;23694;43.274;26.924;2022-09-09T10:57:53;98918.91;;;28.21;30.91
37856;BME280;23694;43.274;26.924;2022-09-09T11:03:04;98912.59;;;28.34;30.63
37856;BME280;23694;43.274;26.924;2022-09-09T11:05:38;98908.50;;;27.93;31.21
37856;BME280;23694;43.274;26.924;2022-09-09T11:08:19;98920.09;;;28.32;30.88
37856;BME280;23694;43.274;26.924;2022-09-09T11:10:51;98923.88;;;28.24;30.93
37856;BME280;23694;43.274;26.924;2022-09-09T11:13:30;98911.28;;;28.68;30.86
37856;BME280;23694;43.274;26.924;2022-09-09T11:16:09;98911.06;;;28.69;30.42
37856;BME280;23694;43.274;26.924;2022-09-09T11:18:41;98907.47;;;28.76;30.23
37856;BME280;23694;43.274;26.924;2022-09-09T11:21:16;98897.88;;;28.36;30.62
37856;BME280;23694;43.274;26.924;2022-09-09T11:23:49;98893.31;;;28.37;30.97
37856;BME280;23694;43.274;26.924;2022-09-09T11:26:36;98892.72;;;28.35;30.94
37856;BME280;23694;43.274;26.924;2022-09-09T11:32:27;98900.19;;;28.33;30.95
37856;BME280;23694;43.274;26.924;2022-09-09T11:40:36;98876.59;;;28.53;30.56
37856;BME280;23694;43.274;26.924;2022-09-09T11:45:33;98881.44;;;28.45;31.41
37856;BME280;23694;43.274;26.924;2022-09-09T11:48:02;98876.25;;;28.68;30.88
37856;BME280;23694;43.274;26.924;2022-09-09T11:50:34;98883.00;;;28.77;30.52
37856;BME280;23694;43.274;26.924;2022-09-09T11:55:39;98875.84;;;29.08;29.96
37856;BME280;23694;43.274;26.924;2022-09-09T11:58:15;98879.28;;;29.33;29.35
37856;BME280;23694;43.274;26.924;2022-09-09T12:00:45;98882.22;;;29.13;29.25
37856;BME280;23694;43.274;26.924;2022-09-09T12:03:34;98895.63;;;29.01;29.42
37856;BME280;23694;43.274;26.924;2022-09-09T12:06:19;98865.31;;;28.63;29.68
37856;BME280;23694;43.274;26.924;2022-09-09T12:08:55;98864.75;;;28.97;29.10
37856;BME280;23694;43.274;26.924;2022-09-09T12:11:28;98866.72;;;29.27;28.75
37856;BME280;23694;43.274;26.924;2022-09-09T12:13:57;98872.47;;;28.94;28.88
37856;BME280;23694;43.274;26.924;2022-09-09T12:19:06;98861.09;;;29.28;28.56
37856;BME280;23694;43.274;26.924;2022-09-09T12:21:50;98856.44;;;29.17;28.82
37856;BME280;23694;43.274;26.924;2022-09-09T12:27:00;98851.72;;;28.94;28.52
37856;BME280;23694;43.274;26.924;2022-09-09T12:32:16;98842.63;;;29.25;28.53
37856;BME280;23694;43.274;26.924;2022-09-09T12:34:47;98838.13;;;29.56;28.18
37856;BME280;23694;43.274;26.924;2022-09-09T12:39:58;98824.84;;;29.54;27.48
37856;BME280;23694;43.274;26.924;2022-09-09T12:42:26;98832.28;;;29.41;28.32
37856;BME280;23694;43.274;26.924;2022-09-09T12:45:00;98825.72;;;29.78;27.66
37856;BME280;23694;43.274;26.924;2022-09-09T12:49:57;98820.75;;;29.52;27.80
37856;BME280;23694;43.274;26.924;2022-09-09T12:52:27;98819.47;;;29.54;27.35
37856;BME280;23694;43.274;26.924;2022-09-09T12:54:56;98809.84;;;29.58;27.95
37856;BME280;23694;43.274;26.924;2022-09-09T12:57:24;98805.16;;;29.35;28.28
37856;BME280;23694;43.274;26.924;2022-09-09T12:59:51;98811.03;;;29.32;28.18
37856;BME280;23694;43.274;26.924;2022-09-09T13:02:24;98790.03;;;29.64;27.95
37856;BME280;23694;43.274;26.924;2022-09-09T13:04:51;98803.44;;;29.41;27.50
37856;BME280;23694;43.274;26.924;2022-09-09T13:07:19;98802.31;;;29.49;27.73
37856;BME280;23694;43.274;26.924;2022-09-09T13:09:47;98805.59;;;29.02;28.48
37856;BME280;23694;43.274;26.924;2022-09-09T13:12:23;98804.22;;;29.12;28.57
37856;BME280;23694;43.274;26.924;2022-09-09T13:14:53;98795.53;;;29.58;28.55
37856;BME280;23694;43.274;26.924;2022-09-09T13:17:22;98796.09;;;29.48;27.91
37856;BME280;23694;43.274;26.924;2022-09-09T13:19:50;98796.56;;;29.45;28.07
37856;BME280;23694;43.274;26.924;2022-09-09T13:22:38;98795.41;;;29.53;27.85
37856;BME280;23694;43.274;26.924;2022-09-09T13:27:59;98784.41;;;29.78;27.56
37856;BME280;23694;43.274;26.924;2022-09-09T13:30:32;98788.38;;;29.33;28.31
37856;BME280;23694;43.274;26.924;2022-09-09T13:33:18;98789.81;;;29.78;27.98
37856;BME280;23694;43.274;26.924;2022-09-09T13:36:00;98795.91;;;30.15;27.97
37856;BME280;23694;43.274;26.924;2022-09-09T13:38:30;98798.72;;;30.20;27.70
37856;BME280;23694;43.274;26.924;2022-09-09T13:40:59;98792.38;;;30.26;27.42
37856;BME280;23694;43.274;26.924;2022-09-09T13:43:29;98785.69;;;30.05;28.00
37856;BME280;23694;43.274;26.924;2022-09-09T13:46:02;98786.69;;;29.92;27.77
37856;BME280;23694;43.274;26.924;2022-09-09T13:48:28;98780.00;;;29.95;27.44
37856;BME280;23694;43.274;26.924;2022-09-09T13:51:03;98779.16;;;29.83;28.43
37856;BME280;23694;43.274;26.924;2022-09-09T13:53:33;98782.06;;;29.70;28.30
37856;BME280;23694;43.274;26.924;2022-09-09T13:55:59;98788.13;;;29.53;28.63
37856;BME280;23694;43.274;26.924;2022-09-09T13:58:25;98777.50;;;29.40;28.96
37856;BME280;23694;43.274;26.924;2022-09-09T14:00:52;98781.03;;;29.41;29.13
37856;BME280;23694;43.274;26.924;2022-09-09T14:03:19;98783.22;;;29.32;28.65
37856;BME280;23694;43.274;26.924;2022-09-09T14:05:46;98775.66;;;29.22;29.19
37856;BME280;23694;43.274;26.924;2022-09-09T14:08:24;98774.38;;;29.43;29.08
37856;BME280;23694;43.274;26.924;2022-09-09T14:10:51;98767.63;;;29.34;28.61
37856;BME280;23694;43.274;26.924;2022-09-09T14:13:18;98775.84;;;29.39;29.18
37856;BME280;23694;43.274;26.924;2022-09-09T14:15:44;98755.50;;;29.43;28.31
37856;BME280;23694;43.274;26.924;2022-09-09T14:18:13;98767.75;;;29.39;29.10
37856;BME280;23694;43.274;26.924;2022-09-09T14:20:39;98764.97;;;29.16;28.92
37856;BME280;23694;43.274;26.924;2022-09-09T14:23:05;98758.72;;;29.33;28.74
37856;BME280;23694;43.274;26.924;2022-09-09T14:25:35;98749.94;;;29.08;29.58
37856;BME280;23694;43.274;26.924;2022-09-09T14:28:02;98755.44;;;29.13;29.22
37856;BME280;23694;43.274;26.924;2022-09-09T14:30:28;98745.63;;;29.19;29.62
37856;BME280;23694;43.274;26.924;2022-09-09T14:32:54;98741.56;;;28.98;29.47
37856;BME280;23694;43.274;26.924;2022-09-09T14:35:20;98744.31;;;29.10;29.70
37856;BME280;23694;43.274;26.924;2022-09-09T14:37:47;98745.34;;;29.09;29.82
37856;BME280;23694;43.274;26.924;2022-09-09T14:40:14;98739.00;;;29.03;30.24
37856;BME280;23694;43.274;26.924;2022-09-09T14:42:40;98740.41;;;29.06;29.81
37856;BME280;23694;43.274;26.924;2022-09-09T14:45:07;98744.56;;;29.20;30.02
37856;BME280;23694;43.274;26.924;2022-09-09T14:47:33;98733.59;;;29.03;30.01
37856;BME280;23694;43.274;26.924;2022-09-09T14:49:59;98725.56;;;28.85;30.27
37856;BME280;23694;43.274;26.924;2022-09-09T14:52:26;98734.75;;;28.95;29.91
37856;BME280;23694;43.274;26.924;2022-09-09T14:54:52;98739.56;;;28.93;30.06
37856;BME280;23694;43.274;26.924;2022-09-09T14:57:19;98743.28;;;28.92;30.04
37856;BME280;23694;43.274;26.924;2022-09-09T14:59:45;98739.88;;;28.85;30.42
37856;BME280;23694;43.274;26.924;2022-09-09T15:02:11;98725.84;;;28.77;30.43
37856;BME280;23694;43.274;26.924;2022-09-09T15:04:38;98735.16;;;28.62;30.67
37856;BME280;23694;43.274;26.924;2022-09-09T15:07:05;98732.22;;;28.64;30.86
37856;BME280;23694;43.274;26.924;2022-09-09T15:09:31;98732.00;;;28.65;30.75
37856;BME280;23694;43.274;26.924;2022-09-09T15:11:57;98731.84;;;28.60;30.78